sensor_id;sensor_type;location;lat;lon;timestamp;pressure;altitude;pressure_sealevel;temperature;humidity
70544;BME280;58097;48.364;-1.224;2023-04-16T00:00:03;100615.03;;;7.87;75.41
70544;BME280;58097;48.364;-1.224;2023-04-16T00:02:29;100609.53;;;7.87;75.20
70544;BME280;58097;48.364;-1.224;2023-04-16T00:04:54;100609.53;;;7.87;75.51
70544;BME280;58097;48.364;-1.224;2023-04-16T00:07:20;100613.28;;;7.86;75.64
70544;BME280;58097;48.364;-1.224;2023-04-16T00:09:45;100616.28;;;7.83;75.43
70544;BME280;58097;48.364;-1.224;2023-04-16T00:12:11;100611.00;;;7.80;75.58
70544;BME280;58097;48.364;-1.224;2023-04-16T00:14:36;100612.16;;;7.77;75.60
70544;BME280;58097;48.364;-1.224;2023-04-16T00:17:02;100604.00;;;7.75;75.51
70544;BME280;58097;48.364;-1.224;2023-04-16T00:19:27;100608.78;;;7.73;74.97
70544;BME280;58097;48.364;-1.224;2023-04-16T00:21:52;100617.41;;;7.69;74.95
70544;BME280;58097;48.364;-1.224;2023-04-16T00:24:18;100614.03;;;7.65;75.28
70544;BME280;58097;48.364;-1.224;2023-04-16T00:26:43;100616.78;;;7.65;75.55
70544;BME280;58097;48.364;-1.224;2023-04-16T00:29:10;100610.28;;;7.66;75.67
70544;BME280;58097;48.364;-1.224;2023-04-16T00:31:36;100597.53;;;7.65;75.57
70544;BME280;58097;48.364;-1.224;2023-04-16T00:34:01;100596.53;;;7.66;75.75
70544;BME280;58097;48.364;-1.224;2023-04-16T00:36:27;100593.78;;;7.66;75.86
70544;BME280;58097;48.364;-1.224;2023-04-16T00:38:53;100590.91;;;7.68;76.20
70544;BME280;58097;48.364;-1.224;2023-04-16T00:41:19;100580.63;;;7.70;76.34
70544;BME280;58097;48.364;-1.224;2023-04-16T00:43:44;100581.50;;;7.70;76.37
70544;BME280;58097;48.364;-1.224;2023-04-16T00:46:10;100586.00;;;7.71;76.55
70544;BME280;58097;48.364;-1.224;2023-04-16T00:48:37;100587.03;;;7.70;76.53
70544;BME280;58097;48.364;-1.224;2023-04-16T00:51:05;100581.50;;;7.70;76.59
70544;BME280;58097;48.364;-1.224;2023-04-16T00:53:30;100584.28;;;7.70;76.30
70544;BME280;58097;48.364;-1.224;2023-04-16T00:55:56;100593.53;;;7.69;76.42
70544;BME280;58097;48.364;-1.224;2023-04-16T00:58:22;100597.28;;;7.68;76.52
70544;BME280;58097;48.364;-1.224;2023-04-16T01:00:47;100597.53;;;7.65;76.28
70544;BME280;58097;48.364;-1.224;2023-04-16T01:03:12;100598.16;;;7.69;76.32
70544;BME280;58097;48.364;-1.224;2023-04-16T01:05:38;100598.16;;;7.69;76.20
70544;BME280;58097;48.364;-1.224;2023-04-16T01:08:04;100601.78;;;7.69;76.27
70544;BME280;58097;48.364;-1.224;2023-04-16T01:10:29;100613.78;;;7.68;75.99
70544;BME280;58097;48.364;-1.224;2023-04-16T01:12:55;100609.16;;;7.69;76.32
70544;BME280;58097;48.364;-1.224;2023-04-16T01:15:20;100601.66;;;7.71;76.33
70544;BME280;58097;48.364;-1.224;2023-04-16T01:17:45;100601.91;;;7.68;76.31
70544;BME280;58097;48.364;-1.224;2023-04-16T01:20:11;100598.28;;;7.67;75.92
70544;BME280;58097;48.364;-1.224;2023-04-16T01:22:36;100601.91;;;7.68;76.46
70544;BME280;58097;48.364;-1.224;2023-04-16T01:25:02;100610.16;;;7.68;76.50
70544;BME280;58097;48.364;-1.224;2023-04-16T01:27:27;100604.53;;;7.69;76.55
70544;BME280;58097;48.364;-1.224;2023-04-16T01:29:52;100597.91;;;7.72;76.54
70544;BME280;58097;48.364;-1.224;2023-04-16T01:32:18;100600.53;;;7.73;76.67
70544;BME280;58097;48.364;-1.224;2023-04-16T01:34:43;100602.13;;;7.76;76.83
70544;BME280;58097;48.364;-1.224;2023-04-16T01:37:09;100594.75;;;7.76;77.92
70544;BME280;58097;48.364;-1.224;2023-04-16T01:39:35;100584.00;;;7.73;77.56
70544;BME280;58097;48.364;-1.224;2023-04-16T01:42:00;100579.91;;;7.68;77.53
70544;BME280;58097;48.364;-1.224;2023-04-16T01:44:26;100587.16;;;7.69;77.50
70544;BME280;58097;48.364;-1.224;2023-04-16T01:46:52;100575.13;;;7.70;77.39
70544;BME280;58097;48.364;-1.224;2023-04-16T01:49:17;100581.38;;;7.72;77.24
70544;BME280;58097;48.364;-1.224;2023-04-16T01:51:42;100574.88;;;7.73;77.01
70544;BME280;58097;48.364;-1.224;2023-04-16T01:54:08;100571.13;;;7.74;77.00
70544;BME280;58097;48.364;-1.224;2023-04-16T01:56:33;100571.25;;;7.72;76.83
70544;BME280;58097;48.364;-1.224;2023-04-16T01:58:59;100576.00;;;7.70;76.90
70544;BME280;58097;48.364;-1.224;2023-04-16T02:01:24;100577.03;;;7.69;76.61
70544;BME280;58097;48.364;-1.224;2023-04-16T02:03:50;100578.03;;;7.68;76.88
70544;BME280;58097;48.364;-1.224;2023-04-16T02:06:15;100587.41;;;7.66;76.55
70544;BME280;58097;48.364;-1.224;2023-04-16T02:08:41;100585.91;;;7.62;76.53
70544;BME280;58097;48.364;-1.224;2023-04-16T02:11:07;100588.78;;;7.60;76.71
70544;BME280;58097;48.364;-1.224;2023-04-16T02:13:33;100588.03;;;7.58;77.03
70544;BME280;58097;48.364;-1.224;2023-04-16T02:15:58;100589.91;;;7.58;76.83
70544;BME280;58097;48.364;-1.224;2023-04-16T02:18:23;100579.53;;;7.50;76.51
70544;BME280;58097;48.364;-1.224;2023-04-16T02:20:49;100584.41;;;7.46;76.80
70544;BME280;58097;48.364;-1.224;2023-04-16T02:23:14;100580.16;;;7.42;76.93
70544;BME280;58097;48.364;-1.224;2023-04-16T02:25:45;100577.28;;;7.33;76.74
70544;BME280;58097;48.364;-1.224;2023-04-16T02:28:11;100578.53;;;7.29;77.16
70544;BME280;58097;48.364;-1.224;2023-04-16T02:30:38;100588.66;;;7.28;77.37
70544;BME280;58097;48.364;-1.224;2023-04-16T02:33:05;100591.28;;;7.30;77.58
70544;BME280;58097;48.364;-1.224;2023-04-16T02:35:32;100582.03;;;7.31;77.57
70544;BME280;58097;48.364;-1.224;2023-04-16T02:37:57;100581.16;;;7.30;77.88
70544;BME280;58097;48.364;-1.224;2023-04-16T02:40:23;100585.53;;;7.33;77.83
70544;BME280;58097;48.364;-1.224;2023-04-16T02:42:49;100591.78;;;7.35;77.81
70544;BME280;58097;48.364;-1.224;2023-04-16T02:45:14;100591.53;;;7.38;77.83
70544;BME280;58097;48.364;-1.224;2023-04-16T02:47:40;100591.41;;;7.39;78.06
70544;BME280;58097;48.364;-1.224;2023-04-16T02:50:06;100590.28;;;7.42;77.97
70544;BME280;58097;48.364;-1.224;2023-04-16T02:52:31;100584.53;;;7.45;78.06
70544;BME280;58097;48.364;-1.224;2023-04-16T02:54:58;100583.53;;;7.46;77.91
70544;BME280;58097;48.364;-1.224;2023-04-16T02:57:23;100588.28;;;7.44;78.02
70544;BME280;58097;48.364;-1.224;2023-04-16T02:59:48;100583.66;;;7.44;78.09
70544;BME280;58097;48.364;-1.224;2023-04-16T03:02:13;100590.91;;;7.45;78.00
70544;BME280;58097;48.364;-1.224;2023-04-16T03:04:40;100589.91;;;7.46;77.87
70544;BME280;58097;48.364;-1.224;2023-04-16T03:07:05;100588.91;;;7.47;77.93
70544;BME280;58097;48.364;-1.224;2023-04-16T03:09:30;100594.41;;;7.47;78.08
70544;BME280;58097;48.364;-1.224;2023-04-16T03:11:56;100599.78;;;7.49;78.12
70544;BME280;58097;48.364;-1.224;2023-04-16T03:14:21;100597.03;;;7.49;78.02
70544;BME280;58097;48.364;-1.224;2023-04-16T03:16:46;100591.41;;;7.51;78.07
70544;BME280;58097;48.364;-1.224;2023-04-16T03:19:12;100588.56;;;7.52;78.25
70544;BME280;58097;48.364;-1.224;2023-04-16T03:21:37;100593.94;;;7.54;78.26
70544;BME280;58097;48.364;-1.224;2023-04-16T03:24:02;100588.41;;;7.54;78.17
70544;BME280;58097;48.364;-1.224;2023-04-16T03:26:28;100576.28;;;7.56;78.10
70544;BME280;58097;48.364;-1.224;2023-04-16T03:28:53;100571.66;;;7.57;77.92
70544;BME280;58097;48.364;-1.224;2023-04-16T03:31:19;100576.91;;;7.60;78.03
70544;BME280;58097;48.364;-1.224;2023-04-16T03:33:44;100574.03;;;7.61;78.04
70544;BME280;58097;48.364;-1.224;2023-04-16T03:36:09;100568.53;;;7.61;78.14
70544;BME280;58097;48.364;-1.224;2023-04-16T03:38:35;100563.03;;;7.61;77.91
70544;BME280;58097;48.364;-1.224;2023-04-16T03:41:00;100570.28;;;7.62;77.99
70544;BME280;58097;48.364;-1.224;2023-04-16T03:43:26;100564.78;;;7.62;77.85
70544;BME280;58097;48.364;-1.224;2023-04-16T03:45:51;100564.78;;;7.62;77.63
70544;BME280;58097;48.364;-1.224;2023-04-16T03:48:16;100556.66;;;7.61;77.60
70544;BME280;58097;48.364;-1.224;2023-04-16T03:50:45;100561.28;;;7.60;77.77
70544;BME280;58097;48.364;-1.224;2023-04-16T03:53:11;100561.53;;;7.57;77.72
70544;BME280;58097;48.364;-1.224;2023-04-16T03:55:37;100558.91;;;7.56;77.65
70544;BME280;58097;48.364;-1.224;2023-04-16T03:58:02;100554.53;;;7.53;77.83
70544;BME280;58097;48.364;-1.224;2023-04-16T04:00:29;100564.66;;;7.53;77.77
70544;BME280;58097;48.364;-1.224;2023-04-16T04:02:54;100559.25;;;7.51;77.73
70544;BME280;58097;48.364;-1.224;2023-04-16T04:05:20;100563.00;;;7.50;77.56
70544;BME280;58097;48.364;-1.224;2023-04-16T04:07:45;100556.78;;;7.48;77.46
70544;BME280;58097;48.364;-1.224;2023-04-16T04:10:10;100561.41;;;7.47;77.53
70544;BME280;58097;48.364;-1.224;2023-04-16T04:12:36;100567.91;;;7.46;77.38
70544;BME280;58097;48.364;-1.224;2023-04-16T04:15:01;100565.53;;;7.42;77.40
70544;BME280;58097;48.364;-1.224;2023-04-16T04:17:26;100571.28;;;7.39;77.34
70544;BME280;58097;48.364;-1.224;2023-04-16T04:19:52;100572.28;;;7.38;77.32
70544;BME280;58097;48.364;-1.224;2023-04-16T04:22:18;100567.91;;;7.35;77.15
70544;BME280;58097;48.364;-1.224;2023-04-16T04:24:43;100566.28;;;7.33;77.09
70544;BME280;58097;48.364;-1.224;2023-04-16T04:27:09;100563.78;;;7.30;77.23
70544;BME280;58097;48.364;-1.224;2023-04-16T04:29:34;100563.03;;;7.28;77.45
70544;BME280;58097;48.364;-1.224;2023-04-16T04:32:00;100571.53;;;7.25;77.45
70544;BME280;58097;48.364;-1.224;2023-04-16T04:34:25;100568.78;;;7.25;77.41
70544;BME280;58097;48.364;-1.224;2023-04-16T04:36:50;100572.63;;;7.22;77.31
70544;BME280;58097;48.364;-1.224;2023-04-16T04:39:16;100572.00;;;7.19;77.21
70544;BME280;58097;48.364;-1.224;2023-04-16T04:41:41;100569.50;;;7.15;76.79
70544;BME280;58097;48.364;-1.224;2023-04-16T04:44:07;100570.50;;;7.14;77.21
70544;BME280;58097;48.364;-1.224;2023-04-16T04:46:32;100575.25;;;7.12;76.91
70544;BME280;58097;48.364;-1.224;2023-04-16T04:48:57;100578.13;;;7.11;77.08
70544;BME280;58097;48.364;-1.224;2023-04-16T04:51:23;100573.00;;;7.06;77.13
70544;BME280;58097;48.364;-1.224;2023-04-16T04:53:48;100570.63;;;7.02;77.22
70544;BME280;58097;48.364;-1.224;2023-04-16T04:56:13;100566.25;;;6.99;76.98
70544;BME280;58097;48.364;-1.224;2023-04-16T04:58:40;100565.84;;;6.93;77.00
70544;BME280;58097;48.364;-1.224;2023-04-16T05:01:05;100566.09;;;6.90;77.31
70544;BME280;58097;48.364;-1.224;2023-04-16T05:03:30;100565.34;;;6.88;77.29
70544;BME280;58097;48.364;-1.224;2023-04-16T05:05:56;100560.84;;;6.87;77.36
70544;BME280;58097;48.364;-1.224;2023-04-16T05:08:21;100572.84;;;6.86;77.53
70544;BME280;58097;48.364;-1.224;2023-04-16T05:10:46;100574.59;;;6.87;77.57
70544;BME280;58097;48.364;-1.224;2023-04-16T05:13:12;100584.72;;;6.86;77.71
70544;BME280;58097;48.364;-1.224;2023-04-16T05:15:37;100583.72;;;6.87;77.80
70544;BME280;58097;48.364;-1.224;2023-04-16T05:18:03;100586.34;;;6.89;77.85
70544;BME280;58097;48.364;-1.224;2023-04-16T05:20:28;100587.34;;;6.88;78.09
70544;BME280;58097;48.364;-1.224;2023-04-16T05:22:53;100591.06;;;6.87;78.20
70544;BME280;58097;48.364;-1.224;2023-04-16T05:25:19;100584.94;;;6.83;78.29
70544;BME280;58097;48.364;-1.224;2023-04-16T05:27:45;100594.06;;;6.83;78.30
70544;BME280;58097;48.364;-1.224;2023-04-16T05:30:10;100595.94;;;6.83;77.96
70544;BME280;58097;48.364;-1.224;2023-04-16T05:32:38;100590.44;;;6.83;78.28
70544;BME280;58097;48.364;-1.224;2023-04-16T05:35:03;100596.06;;;6.81;78.43
70544;BME280;58097;48.364;-1.224;2023-04-16T05:37:29;100598.06;;;6.79;78.37
70544;BME280;58097;48.364;-1.224;2023-04-16T05:39:54;100597.19;;;6.79;78.36
70544;BME280;58097;48.364;-1.224;2023-04-16T05:42:20;100604.66;;;6.77;78.24
70544;BME280;58097;48.364;-1.224;2023-04-16T05:44:45;100601.16;;;6.75;78.04
70544;BME280;58097;48.364;-1.224;2023-04-16T05:47:10;100603.16;;;6.73;77.96
70544;BME280;58097;48.364;-1.224;2023-04-16T05:49:36;100608.03;;;6.69;78.10
70544;BME280;58097;48.364;-1.224;2023-04-16T05:52:03;100601.22;;;6.62;77.92
70544;BME280;58097;48.364;-1.224;2023-04-16T05:54:28;100604.09;;;6.61;78.41
70544;BME280;58097;48.364;-1.224;2023-04-16T05:56:53;100601.47;;;6.59;78.54
70544;BME280;58097;48.364;-1.224;2023-04-16T05:59:19;100605.22;;;6.58;78.76
70544;BME280;58097;48.364;-1.224;2023-04-16T06:01:44;100613.22;;;6.61;78.86
70544;BME280;58097;48.364;-1.224;2023-04-16T06:04:09;100614.09;;;6.62;78.86
70544;BME280;58097;48.364;-1.224;2023-04-16T06:06:35;100613.09;;;6.63;78.68
70544;BME280;58097;48.364;-1.224;2023-04-16T06:09:01;100615.84;;;6.63;78.64
70544;BME280;58097;48.364;-1.224;2023-04-16T06:11:28;100613.97;;;6.63;78.64
70544;BME280;58097;48.364;-1.224;2023-04-16T06:13:54;100617.38;;;6.67;78.72
70544;BME280;58097;48.364;-1.224;2023-04-16T06:16:19;100615.50;;;6.67;78.63
70544;BME280;58097;48.364;-1.224;2023-04-16T06:18:44;100619.88;;;6.70;78.83
70544;BME280;58097;48.364;-1.224;2023-04-16T06:21:10;100621.41;;;6.74;78.95
70544;BME280;58097;48.364;-1.224;2023-04-16T06:23:35;100625.53;;;6.79;79.11
70544;BME280;58097;48.364;-1.224;2023-04-16T06:26:00;100635.16;;;6.85;79.30
70544;BME280;58097;48.364;-1.224;2023-04-16T06:28:26;100632.91;;;6.90;79.72
70544;BME280;58097;48.364;-1.224;2023-04-16T06:30:51;100638.72;;;6.98;80.22
70544;BME280;58097;48.364;-1.224;2023-04-16T06:33:18;100638.13;;;7.17;80.64
70544;BME280;58097;48.364;-1.224;2023-04-16T06:35:43;100639.16;;;7.38;80.69
70544;BME280;58097;48.364;-1.224;2023-04-16T06:38:08;100638.31;;;7.60;80.44
70544;BME280;58097;48.364;-1.224;2023-04-16T06:40:34;100651.06;;;7.84;80.52
70544;BME280;58097;48.364;-1.224;2023-04-16T06:43:01;100645.03;;;8.12;80.74
70544;BME280;58097;48.364;-1.224;2023-04-16T06:45:27;100648.84;;;8.32;80.83
70544;BME280;58097;48.364;-1.224;2023-04-16T06:47:52;100649.97;;;8.52;80.56
70544;BME280;58097;48.364;-1.224;2023-04-16T06:50:18;100640.03;;;8.60;80.03
70544;BME280;58097;48.364;-1.224;2023-04-16T06:52:43;100633.09;;;8.66;79.69
70544;BME280;58097;48.364;-1.224;2023-04-16T06:55:10;100643.09;;;8.78;79.95
70544;BME280;58097;48.364;-1.224;2023-04-16T06:57:35;100645.78;;;8.89;79.86
70544;BME280;58097;48.364;-1.224;2023-04-16T07:00:01;100648.56;;;9.10;79.86
70544;BME280;58097;48.364;-1.224;2023-04-16T07:02:27;100657.50;;;9.23;79.71
70544;BME280;58097;48.364;-1.224;2023-04-16T07:04:52;100658.59;;;9.32;79.18
70544;BME280;58097;48.364;-1.224;2023-04-16T07:07:17;100661.22;;;9.34;79.09
70544;BME280;58097;48.364;-1.224;2023-04-16T07:09:43;100651.06;;;9.34;78.97
70544;BME280;58097;48.364;-1.224;2023-04-16T07:12:08;100661.22;;;9.34;79.26
70544;BME280;58097;48.364;-1.224;2023-04-16T07:14:34;100667.34;;;9.37;79.28
70544;BME280;58097;48.364;-1.224;2023-04-16T07:16:59;100664.50;;;9.48;78.98
70544;BME280;58097;48.364;-1.224;2023-04-16T07:19:24;100659.44;;;9.53;78.80
70544;BME280;58097;48.364;-1.224;2023-04-16T07:21:54;100663.69;;;9.57;78.92
70544;BME280;58097;48.364;-1.224;2023-04-16T07:24:19;100676.13;;;9.73;79.73
70544;BME280;58097;48.364;-1.224;2023-04-16T07:26:45;100677.69;;;9.96;80.13
70544;BME280;58097;48.364;-1.224;2023-04-16T07:29:10;100666.19;;;10.21;80.73
70544;BME280;58097;48.364;-1.224;2023-04-16T07:31:35;100667.13;;;10.51;80.53
70544;BME280;58097;48.364;-1.224;2023-04-16T07:34:01;100668.91;;;10.81;80.65
70544;BME280;58097;48.364;-1.224;2023-04-16T07:36:26;100675.47;;;11.09;80.46
70544;BME280;58097;48.364;-1.224;2023-04-16T07:38:52;100670.38;;;11.33;80.46
70544;BME280;58097;48.364;-1.224;2023-04-16T07:41:17;100667.84;;;11.59;79.98
70544;BME280;58097;48.364;-1.224;2023-04-16T07:43:43;100670.28;;;11.82;79.59
70544;BME280;58097;48.364;-1.224;2023-04-16T07:46:08;100668.47;;;12.00;78.51
70544;BME280;58097;48.364;-1.224;2023-04-16T07:48:33;100678.03;;;12.15;77.58
70544;BME280;58097;48.364;-1.224;2023-04-16T07:50:59;100677.19;;;12.32;78.38
70544;BME280;58097;48.364;-1.224;2023-04-16T07:53:24;100669.66;;;12.52;78.22
70544;BME280;58097;48.364;-1.224;2023-04-16T07:55:50;100674.06;;;12.73;78.06
70544;BME280;58097;48.364;-1.224;2023-04-16T07:58:15;100678.63;;;12.64;73.87
70544;BME280;58097;48.364;-1.224;2023-04-16T08:00:42;100670.63;;;12.61;71.66
70544;BME280;58097;48.364;-1.224;2023-04-16T08:03:07;100679.25;;;12.58;71.61
70544;BME280;58097;48.364;-1.224;2023-04-16T08:05:32;100674.34;;;12.52;72.19
70544;BME280;58097;48.364;-1.224;2023-04-16T08:07:58;100681.16;;;12.57;71.70
70544;BME280;58097;48.364;-1.224;2023-04-16T08:10:23;100674.44;;;12.78;74.72
70544;BME280;58097;48.364;-1.224;2023-04-16T08:12:48;100673.97;;;13.00;73.13
70544;BME280;58097;48.364;-1.224;2023-04-16T08:15:14;100685.97;;;13.18;74.53
70544;BME280;58097;48.364;-1.224;2023-04-16T08:17:39;100675.53;;;13.30;72.68
70544;BME280;58097;48.364;-1.224;2023-04-16T08:20:05;100678.09;;;13.49;72.43
70544;BME280;58097;48.364;-1.224;2023-04-16T08:22:31;100674.13;;;13.52;71.43
70544;BME280;58097;48.364;-1.224;2023-04-16T08:24:57;100680.69;;;13.69;72.40
70544;BME280;58097;48.364;-1.224;2023-04-16T08:27:22;100684.13;;;13.62;67.77
70544;BME280;58097;48.364;-1.224;2023-04-16T08:29:48;100672.53;;;13.49;66.29
70544;BME280;58097;48.364;-1.224;2023-04-16T08:32:13;100661.72;;;13.64;69.08
70544;BME280;58097;48.364;-1.224;2023-04-16T08:34:38;100676.53;;;13.73;69.51
70544;BME280;58097;48.364;-1.224;2023-04-16T08:37:04;100677.38;;;13.91;68.69
70544;BME280;58097;48.364;-1.224;2023-04-16T08:39:29;100675.69;;;14.06;68.76
70544;BME280;58097;48.364;-1.224;2023-04-16T08:41:55;100685.19;;;13.95;65.10
70544;BME280;58097;48.364;-1.224;2023-04-16T08:44:26;100679.69;;;14.04;66.79
70544;BME280;58097;48.364;-1.224;2023-04-16T08:46:53;100679.72;;;14.12;68.20
70544;BME280;58097;48.364;-1.224;2023-04-16T08:49:24;100688.00;;;14.30;65.46
70544;BME280;58097;48.364;-1.224;2023-04-16T08:51:51;100684.03;;;14.40;66.48
70544;BME280;58097;48.364;-1.224;2023-04-16T08:54:33;100688.72;;;14.40;64.34
70544;BME280;58097;48.364;-1.224;2023-04-16T08:57:05;100686.91;;;14.56;67.44
70544;BME280;58097;48.364;-1.224;2023-04-16T08:59:31;100692.84;;;14.70;66.41
70544;BME280;58097;48.364;-1.224;2023-04-16T09:01:57;100688.56;;;14.83;66.82
70544;BME280;58097;48.364;-1.224;2023-04-16T09:04:27;100691.16;;;14.77;62.84
70544;BME280;58097;48.364;-1.224;2023-04-16T09:06:57;100691.38;;;15.00;67.86
70544;BME280;58097;48.364;-1.224;2023-04-16T09:09:26;100694.19;;;15.32;68.75
70544;BME280;58097;48.364;-1.224;2023-04-16T09:11:52;100696.47;;;15.45;60.26
70544;BME280;58097;48.364;-1.224;2023-04-16T09:14:18;100699.44;;;15.52;59.55
70544;BME280;58097;48.364;-1.224;2023-04-16T09:16:45;100698.41;;;15.61;61.35
70544;BME280;58097;48.364;-1.224;2023-04-16T09:19:13;100698.28;;;15.62;60.07
70544;BME280;58097;48.364;-1.224;2023-04-16T09:21:40;100697.84;;;15.16;54.73
70544;BME280;58097;48.364;-1.224;2023-04-16T09:24:07;100697.59;;;14.77;51.26
70544;BME280;58097;48.364;-1.224;2023-04-16T09:26:33;100696.41;;;14.96;59.64
70544;BME280;58097;48.364;-1.224;2023-04-16T09:28:58;100700.81;;;15.15;57.65
70544;BME280;58097;48.364;-1.224;2023-04-16T09:31:23;100705.13;;;15.01;52.20
70544;BME280;58097;48.364;-1.224;2023-04-16T09:36:27;100704.63;;;15.30;58.70
70544;BME280;58097;48.364;-1.224;2023-04-16T09:38:53;100702.22;;;15.43;57.88
70544;BME280;58097;48.364;-1.224;2023-04-16T09:41:23;100706.28;;;15.65;55.74
70544;BME280;58097;48.364;-1.224;2023-04-16T09:44:01;100698.91;;;15.07;52.14
70544;BME280;58097;48.364;-1.224;2023-04-16T09:48:53;100709.72;;;15.35;53.43
70544;BME280;58097;48.364;-1.224;2023-04-16T09:51:18;100699.78;;;15.57;57.63
70544;BME280;58097;48.364;-1.224;2023-04-16T09:53:44;100703.28;;;15.75;57.66
70544;BME280;58097;48.364;-1.224;2023-04-16T09:56:10;100707.97;;;15.99;54.13
70544;BME280;58097;48.364;-1.224;2023-04-16T09:58:36;100703.78;;;16.03;54.19
70544;BME280;58097;48.364;-1.224;2023-04-16T10:01:10;100706.06;;;15.99;53.21
70544;BME280;58097;48.364;-1.224;2023-04-16T10:03:37;100708.88;;;15.75;52.06
70544;BME280;58097;48.364;-1.224;2023-04-16T10:06:17;100711.47;;;15.93;54.25
70544;BME280;58097;48.364;-1.224;2023-04-16T10:08:50;100714.22;;;16.09;54.83
70544;BME280;58097;48.364;-1.224;2023-04-16T10:11:18;100715.25;;;16.24;53.96
70544;BME280;58097;48.364;-1.224;2023-04-16T10:13:44;100716.25;;;16.31;52.48
70544;BME280;58097;48.364;-1.224;2023-04-16T10:16:10;100720.75;;;16.49;53.41
70544;BME280;58097;48.364;-1.224;2023-04-16T10:18:37;100717.38;;;16.61;54.81
70544;BME280;58097;48.364;-1.224;2023-04-16T10:21:03;100719.25;;;16.77;53.10
70544;BME280;58097;48.364;-1.224;2023-04-16T10:23:29;100715.06;;;16.81;52.02
70544;BME280;58097;48.364;-1.224;2023-04-16T10:25:55;100716.09;;;16.80;51.48
70544;BME280;58097;48.364;-1.224;2023-04-16T10:28:21;100711.34;;;16.89;52.03
70544;BME280;58097;48.364;-1.224;2023-04-16T10:30:48;100713.03;;;16.98;51.15
70544;BME280;58097;48.364;-1.224;2023-04-16T10:33:22;100718.22;;;16.78;47.46
70544;BME280;58097;48.364;-1.224;2023-04-16T10:35:52;100707.75;;;16.72;48.36
70544;BME280;58097;48.364;-1.224;2023-04-16T10:38:24;100713.31;;;16.80;49.75
70544;BME280;58097;48.364;-1.224;2023-04-16T10:40:57;100717.09;;;16.87;49.84
70544;BME280;58097;48.364;-1.224;2023-04-16T10:43:24;100711.78;;;17.00;52.88
70544;BME280;58097;48.364;-1.224;2023-04-16T10:45:49;100708.13;;;17.00;47.15
70544;BME280;58097;48.364;-1.224;2023-04-16T10:48:17;100710.16;;;17.14;50.51
70544;BME280;58097;48.364;-1.224;2023-04-16T10:50:53;100710.94;;;17.23;51.26
70544;BME280;58097;48.364;-1.224;2023-04-16T10:58:34;100703.44;;;17.46;52.01
70544;BME280;58097;48.364;-1.224;2023-04-16T11:01:00;100702.50;;;17.54;55.38
70544;BME280;58097;48.364;-1.224;2023-04-16T11:03:30;100695.19;;;17.76;53.37
70544;BME280;58097;48.364;-1.224;2023-04-16T11:06:11;100697.66;;;17.93;51.80
70544;BME280;58097;48.364;-1.224;2023-04-16T11:08:38;100696.31;;;18.04;52.94
70544;BME280;58097;48.364;-1.224;2023-04-16T11:11:05;100701.91;;;18.04;52.00
70544;BME280;58097;48.364;-1.224;2023-04-16T11:13:31;100696.50;;;18.17;51.79
70544;BME280;58097;48.364;-1.224;2023-04-16T11:15:57;100687.66;;;18.29;53.52
70544;BME280;58097;48.364;-1.224;2023-04-16T11:18:23;100686.69;;;18.36;49.49
70544;BME280;58097;48.364;-1.224;2023-04-16T11:20:50;100693.22;;;18.43;50.13
70544;BME280;58097;48.364;-1.224;2023-04-16T11:23:15;100693.81;;;18.09;47.52
70544;BME280;58097;48.364;-1.224;2023-04-16T11:25:40;100687.69;;;17.76;43.23
70544;BME280;58097;48.364;-1.224;2023-04-16T11:28:06;100686.03;;;17.67;48.91
70544;BME280;58097;48.364;-1.224;2023-04-16T11:30:33;100694.22;;;17.69;50.18
70544;BME280;58097;48.364;-1.224;2023-04-16T11:33:07;100690.09;;;17.33;45.96
70544;BME280;58097;48.364;-1.224;2023-04-16T11:35:33;100685.22;;;17.04;48.88
70544;BME280;58097;48.364;-1.224;2023-04-16T11:37:59;100682.63;;;17.26;50.38
70544;BME280;58097;48.364;-1.224;2023-04-16T11:40:28;100683.59;;;17.41;50.00
70544;BME280;58097;48.364;-1.224;2023-04-16T11:42:54;100684.56;;;17.48;49.97
70544;BME280;58097;48.364;-1.224;2023-04-16T11:45:19;100684.09;;;17.68;51.79
70544;BME280;58097;48.364;-1.224;2023-04-16T11:47:52;100680.63;;;17.80;50.56
70544;BME280;58097;48.364;-1.224;2023-04-16T11:50:25;100678.53;;;17.82;50.20
70544;BME280;58097;48.364;-1.224;2023-04-16T11:52:56;100679.97;;;17.55;50.83
70544;BME280;58097;48.364;-1.224;2023-04-16T11:55:22;100679.34;;;17.45;49.12
70544;BME280;58097;48.364;-1.224;2023-04-16T11:57:48;100673.84;;;17.37;49.87
70544;BME280;58097;48.364;-1.224;2023-04-16T12:00:14;100667.19;;;17.38;48.58
70544;BME280;58097;48.364;-1.224;2023-04-16T12:02:40;100669.31;;;17.36;47.68
70544;BME280;58097;48.364;-1.224;2023-04-16T12:05:24;100673.78;;;17.45;48.43
70544;BME280;58097;48.364;-1.224;2023-04-16T12:07:51;100667.50;;;17.43;47.87
70544;BME280;58097;48.364;-1.224;2023-04-16T12:10:17;100667.19;;;17.38;46.42
70544;BME280;58097;48.364;-1.224;2023-04-16T12:12:42;100670.09;;;17.22;45.71
70544;BME280;58097;48.364;-1.224;2023-04-16T12:15:08;100666.97;;;16.94;47.12
70544;BME280;58097;48.364;-1.224;2023-04-16T12:17:34;100659.53;;;16.86;48.11
70544;BME280;58097;48.364;-1.224;2023-04-16T12:20:02;100660.53;;;16.93;48.57
70544;BME280;58097;48.364;-1.224;2023-04-16T12:22:32;100658.34;;;17.03;47.77
70544;BME280;58097;48.364;-1.224;2023-04-16T12:25:00;100661.16;;;17.03;49.23
70544;BME280;58097;48.364;-1.224;2023-04-16T12:30:09;100657.31;;;17.04;47.38
70544;BME280;58097;48.364;-1.224;2023-04-16T12:32:35;100659.09;;;16.97;47.54
70544;BME280;58097;48.364;-1.224;2023-04-16T12:35:00;100656.97;;;17.08;49.40
70544;BME280;58097;48.364;-1.224;2023-04-16T12:37:26;100654.16;;;17.30;50.35
70544;BME280;58097;48.364;-1.224;2023-04-16T12:39:52;100655.06;;;17.46;47.71
70544;BME280;58097;48.364;-1.224;2023-04-16T12:42:17;100658.16;;;17.51;46.39
70544;BME280;58097;48.364;-1.224;2023-04-16T12:44:43;100648.91;;;17.73;49.18
70544;BME280;58097;48.364;-1.224;2023-04-16T12:47:08;100650.03;;;18.02;49.64
70544;BME280;58097;48.364;-1.224;2023-04-16T12:49:35;100657.25;;;18.25;49.95
70544;BME280;58097;48.364;-1.224;2023-04-16T12:52:01;100651.56;;;18.19;46.20